sensor_id;sensor_type;location;lat;lon;timestamp;P1;durP1;ratioP1;P2;durP2;ratioP2
3329;SDS011;1677;49.576;10.990;2022-07-04T00:00:26;2.50;;;2.30;;
3329;SDS011;1677;49.576;10.990;2022-07-04T00:02:52;2.57;;;2.37;;
3329;SDS011;1677;49.576;10.990;2022-07-04T00:05:18;2.40;;;2.20;;
3329;SDS011;1677;49.576;10.990;2022-07-04T00:07:45;6.10;;;2.33;;
3329;SDS011;1677;49.576;10.990;2022-07-04T00:10:13;2.90;;;2.20;;
3329;SDS011;1677;49.576;10.990;2022-07-04T00:12:43;3.17;;;2.53;;
3329;SDS011;1677;49.576;10.990;2022-07-04T00:15:10;2.23;;;2.00;;
3329;SDS011;1677;49.576;10.990;2022-07-04T00:17:36;2.50;;;2.27;;
3329;SDS011;1677;49.576;10.990;2022-07-04T00:20:02;2.87;;;2.57;;
3329;SDS011;1677;49.576;10.990;2022-07-04T00:22:29;2.43;;;2.23;;
3329;SDS011;1677;49.576;10.990;2022-07-04T00:24:54;2.50;;;2.20;;
3329;SDS011;1677;49.576;10.990;2022-07-04T00:27:20;2.20;;;1.87;;
3329;SDS011;1677;49.576;10.990;2022-07-04T00:29:46;1.73;;;1.57;;
3329;SDS011;1677;49.576;10.990;2022-07-04T00:32:11;3.63;;;1.90;;
3329;SDS011;1677;49.576;10.990;2022-07-04T00:34:37;2.80;;;2.17;;
3329;SDS011;1677;49.576;10.990;2022-07-04T00:37:03;2.50;;;2.30;;
3329;SDS011;1677;49.576;10.990;2022-07-04T00:39:28;2.23;;;2.03;;
3329;SDS011;1677;49.576;10.990;2022-07-04T00:41:54;2.40;;;2.20;;
3329;SDS011;1677;49.576;10.990;2022-07-04T00:44:20;2.33;;;2.13;;
3329;SDS011;1677;49.576;10.990;2022-07-04T00:46:46;2.50;;;2.23;;
3329;SDS011;1677;49.576;10.990;2022-07-04T00:49:13;3.80;;;2.23;;
3329;SDS011;1677;49.576;10.990;2022-07-04T00:51:40;3.03;;;2.30;;
3329;SDS011;1677;49.576;10.990;2022-07-04T00:54:07;2.70;;;2.17;;
3329;SDS011;1677;49.576;10.990;2022-07-04T00:56:36;2.40;;;2.20;;
3329;SDS011;1677;49.576;10.990;2022-07-04T00:59:03;3.00;;;2.47;;
3329;SDS011;1677;49.576;10.990;2022-07-04T01:01:28;3.00;;;2.07;;
3329;SDS011;1677;49.576;10.990;2022-07-04T01:03:55;3.20;;;2.50;;
3329;SDS011;1677;49.576;10.990;2022-07-04T01:06:21;2.40;;;2.17;;
3329;SDS011;1677;49.576;10.990;2022-07-04T01:08:46;2.90;;;2.33;;
3329;SDS011;1677;49.576;10.990;2022-07-04T01:11:12;4.63;;;2.70;;
3329;SDS011;1677;49.576;10.990;2022-07-04T01:13:39;2.30;;;2.10;;
3329;SDS011;1677;49.576;10.990;2022-07-04T01:16:08;4.10;;;2.70;;
3329;SDS011;1677;49.576;10.990;2022-07-04T01:18:35;3.40;;;2.47;;
3329;SDS011;1677;49.576;10.990;2022-07-04T01:21:01;3.00;;;2.30;;
3329;SDS011;1677;49.576;10.990;2022-07-04T01:23:27;2.50;;;2.30;;
3329;SDS011;1677;49.576;10.990;2022-07-04T01:25:53;2.43;;;2.23;;
3329;SDS011;1677;49.576;10.990;2022-07-04T01:28:20;3.63;;;2.93;;
3329;SDS011;1677;49.576;10.990;2022-07-04T01:30:46;2.70;;;2.50;;
3329;SDS011;1677;49.576;10.990;2022-07-04T01:33:12;3.30;;;3.00;;
3329;SDS011;1677;49.576;10.990;2022-07-04T01:35:38;6.53;;;2.50;;
3329;SDS011;1677;49.576;10.990;2022-07-04T01:38:03;3.20;;;2.83;;
3329;SDS011;1677;49.576;10.990;2022-07-04T01:40:29;3.63;;;2.87;;
3329;SDS011;1677;49.576;10.990;2022-07-04T01:42:54;6.70;;;2.40;;
3329;SDS011;1677;49.576;10.990;2022-07-04T01:45:20;2.73;;;2.53;;
3329;SDS011;1677;49.576;10.990;2022-07-04T01:47:46;3.30;;;2.83;;
3329;SDS011;1677;49.576;10.990;2022-07-04T01:50:11;4.27;;;2.53;;
3329;SDS011;1677;49.576;10.990;2022-07-04T01:52:38;3.00;;;2.37;;
3329;SDS011;1677;49.576;10.990;2022-07-04T01:55:04;3.07;;;2.60;;
3329;SDS011;1677;49.576;10.990;2022-07-04T01:57:31;3.10;;;2.80;;
3329;SDS011;1677;49.576;10.990;2022-07-04T01:59:56;2.90;;;2.70;;
3329;SDS011;1677;49.576;10.990;2022-07-04T02:02:40;2.70;;;2.33;;
3329;SDS011;1677;49.576;10.990;2022-07-04T02:05:06;4.33;;;2.60;;
3329;SDS011;1677;49.576;10.990;2022-07-04T02:07:32;5.20;;;3.10;;
3329;SDS011;1677;49.576;10.990;2022-07-04T02:09:58;3.23;;;2.90;;
3329;SDS011;1677;49.576;10.990;2022-07-04T02:12:23;3.47;;;2.53;;
3329;SDS011;1677;49.576;10.990;2022-07-04T02:15:08;3.10;;;2.43;;
3329;SDS011;1677;49.576;10.990;2022-07-04T02:17:33;2.80;;;2.60;;
3329;SDS011;1677;49.576;10.990;2022-07-04T02:19:59;3.20;;;2.97;;
3329;SDS011;1677;49.576;10.990;2022-07-04T02:22:25;2.80;;;2.60;;
3329;SDS011;1677;49.576;10.990;2022-07-04T02:24:50;3.03;;;2.50;;
3329;SDS011;1677;49.576;10.990;2022-07-04T02:27:16;3.33;;;3.03;;
3329;SDS011;1677;49.576;10.990;2022-07-04T02:29:42;3.37;;;3.07;;
3329;SDS011;1677;49.576;10.990;2022-07-04T02:32:07;4.97;;;2.80;;
3329;SDS011;1677;49.576;10.990;2022-07-04T02:34:33;3.20;;;2.73;;
3329;SDS011;1677;49.576;10.990;2022-07-04T02:36:59;2.77;;;2.57;;
3329;SDS011;1677;49.576;10.990;2022-07-04T02:39:24;2.70;;;2.50;;
3329;SDS011;1677;49.576;10.990;2022-07-04T02:41:50;2.90;;;2.70;;
3329;SDS011;1677;49.576;10.990;2022-07-04T02:44:16;6.30;;;2.63;;
3329;SDS011;1677;49.576;10.990;2022-07-04T02:46:42;2.87;;;2.53;;
3329;SDS011;1677;49.576;10.990;2022-07-04T02:49:07;2.47;;;2.33;;
3329;SDS011;1677;49.576;10.990;2022-07-04T02:51:33;6.10;;;2.40;;
3329;SDS011;1677;49.576;10.990;2022-07-04T02:53:59;3.13;;;2.90;;
3329;SDS011;1677;49.576;10.990;2022-07-04T02:56:25;3.77;;;2.63;;
3329;SDS011;1677;49.576;10.990;2022-07-04T02:58:51;3.27;;;2.80;;
3329;SDS011;1677;49.576;10.990;2022-07-04T03:01:16;2.73;;;2.43;;
3329;SDS011;1677;49.576;10.990;2022-07-04T03:03:44;3.73;;;3.30;;
3329;SDS011;1677;49.576;10.990;2022-07-04T03:06:10;3.00;;;2.70;;
3329;SDS011;1677;49.576;10.990;2022-07-04T03:08:36;5.43;;;3.27;;
3329;SDS011;1677;49.576;10.990;2022-07-04T03:11:03;2.97;;;2.77;;
3329;SDS011;1677;49.576;10.990;2022-07-04T03:13:29;2.70;;;2.50;;
3329;SDS011;1677;49.576;10.990;2022-07-04T03:15:54;3.23;;;3.03;;
3329;SDS011;1677;49.576;10.990;2022-07-04T03:18:20;3.10;;;2.50;;
3329;SDS011;1677;49.576;10.990;2022-07-04T03:20:46;3.00;;;2.80;;
3329;SDS011;1677;49.576;10.990;2022-07-04T03:23:12;10.50;;;3.17;;
3329;SDS011;1677;49.576;10.990;2022-07-04T03:25:38;3.03;;;2.60;;
3329;SDS011;1677;49.576;10.990;2022-07-04T03:28:05;2.77;;;2.57;;
3329;SDS011;1677;49.576;10.990;2022-07-04T03:30:31;2.63;;;2.43;;
3329;SDS011;1677;49.576;10.990;2022-07-04T03:32:57;6.57;;;2.60;;
3329;SDS011;1677;49.576;10.990;2022-07-04T03:35:23;3.50;;;2.60;;
3329;SDS011;1677;49.576;10.990;2022-07-04T03:37:49;3.83;;;2.27;;
3329;SDS011;1677;49.576;10.990;2022-07-04T03:40:16;2.87;;;2.67;;
3329;SDS011;1677;49.576;10.990;2022-07-04T03:42:42;3.80;;;2.47;;
3329;SDS011;1677;49.576;10.990;2022-07-04T03:45:08;2.40;;;2.20;;
3329;SDS011;1677;49.576;10.990;2022-07-04T03:47:34;2.20;;;2.00;;
3329;SDS011;1677;49.576;10.990;2022-07-04T03:49:59;2.67;;;2.33;;
3329;SDS011;1677;49.576;10.990;2022-07-04T03:52:25;3.67;;;2.47;;
3329;SDS011;1677;49.576;10.990;2022-07-04T03:54:51;3.37;;;2.80;;
3329;SDS011;1677;49.576;10.990;2022-07-04T03:57:16;3.20;;;2.30;;
3329;SDS011;1677;49.576;10.990;2022-07-04T03:59:42;4.40;;;2.57;;
3329;SDS011;1677;49.576;10.990;2022-07-04T04:02:07;2.47;;;2.27;;
3329;SDS011;1677;49.576;10.990;2022-07-04T04:04:33;3.80;;;2.40;;
3329;SDS011;1677;49.576;10.990;2022-07-04T04:07:17;3.20;;;2.10;;
3329;SDS011;1677;49.576;10.990;2022-07-04T04:09:43;3.00;;;2.33;;
3329;SDS011;1677;49.576;10.990;2022-07-04T04:12:09;4.40;;;4.00;;
3329;SDS011;1677;49.576;10.990;2022-07-04T04:14:34;2.33;;;2.13;;
3329;SDS011;1677;49.576;10.990;2022-07-04T04:17:00;2.83;;;2.10;;
3329;SDS011;1677;49.576;10.990;2022-07-04T04:19:25;2.87;;;2.33;;
3329;SDS011;1677;49.576;10.990;2022-07-04T04:21:51;3.23;;;2.40;;
3329;SDS011;1677;49.576;10.990;2022-07-04T04:24:17;3.23;;;2.57;;
3329;SDS011;1677;49.576;10.990;2022-07-04T04:26:42;2.43;;;2.00;;
3329;SDS011;1677;49.576;10.990;2022-07-04T04:29:08;3.10;;;1.97;;
3329;SDS011;1677;49.576;10.990;2022-07-04T04:31:33;3.10;;;2.50;;
3329;SDS011;1677;49.576;10.990;2022-07-04T04:33:59;5.67;;;2.33;;
3329;SDS011;1677;49.576;10.990;2022-07-04T04:36:24;2.30;;;2.15;;
3329;SDS011;1677;49.576;10.990;2022-07-04T04:38:50;2.67;;;2.20;;
3329;SDS011;1677;49.576;10.990;2022-07-04T04:41:16;2.30;;;2.10;;
3329;SDS011;1677;49.576;10.990;2022-07-04T04:43:42;2.50;;;2.30;;
3329;SDS011;1677;49.576;10.990;2022-07-04T04:46:07;2.47;;;2.27;;
3329;SDS011;1677;49.576;10.990;2022-07-04T04:48:33;2.67;;;2.03;;
3329;SDS011;1677;49.576;10.990;2022-07-04T04:50:59;2.27;;;2.03;;
3329;SDS011;1677;49.576;10.990;2022-07-04T04:53:24;2.70;;;2.50;;
3329;SDS011;1677;49.576;10.990;2022-07-04T04:55:51;3.00;;;2.17;;
3329;SDS011;1677;49.576;10.990;2022-07-04T04:58:17;2.43;;;2.23;;
3329;SDS011;1677;49.576;10.990;2022-07-04T05:00:43;4.40;;;2.80;;
3329;SDS011;1677;49.576;10.990;2022-07-04T05:03:09;3.63;;;2.40;;
3329;SDS011;1677;49.576;10.990;2022-07-04T05:05:34;2.63;;;2.30;;
3329;SDS011;1677;49.576;10.990;2022-07-04T05:08:00;1.93;;;1.70;;
3329;SDS011;1677;49.576;10.990;2022-07-04T05:10:25;1.97;;;1.77;;
3329;SDS011;1677;49.576;10.990;2022-07-04T05:12:51;2.80;;;2.50;;
3329;SDS011;1677;49.576;10.990;2022-07-04T05:15:16;3.30;;;2.30;;
3329;SDS011;1677;49.576;10.990;2022-07-04T05:17:42;4.33;;;2.73;;
3329;SDS011;1677;49.576;10.990;2022-07-04T05:20:08;4.50;;;2.20;;
3329;SDS011;1677;49.576;10.990;2022-07-04T05:22:34;2.37;;;2.17;;
3329;SDS011;1677;49.576;10.990;2022-07-04T05:24:59;2.80;;;2.60;;
3329;SDS011;1677;49.576;10.990;2022-07-04T05:27:25;2.43;;;2.20;;
3329;SDS011;1677;49.576;10.990;2022-07-04T05:29:51;2.67;;;2.47;;
3329;SDS011;1677;49.576;10.990;2022-07-04T05:32:16;3.70;;;2.40;;
3329;SDS011;1677;49.576;10.990;2022-07-04T05:34:42;2.90;;;2.70;;
3329;SDS011;1677;49.576;10.990;2022-07-04T05:37:08;2.30;;;2.10;;
3329;SDS011;1677;49.576;10.990;2022-07-04T05:39:33;2.23;;;2.03;;
3329;SDS011;1677;49.576;10.990;2022-07-04T05:41:59;5.97;;;2.80;;
3329;SDS011;1677;49.576;10.990;2022-07-04T05:44:24;2.60;;;2.40;;
3329;SDS011;1677;49.576;10.990;2022-07-04T05:46:50;2.70;;;2.50;;
3329;SDS011;1677;49.576;10.990;2022-07-04T05:49:16;8.00;;;2.37;;
3329;SDS011;1677;49.576;10.990;2022-07-04T05:51:41;2.70;;;2.50;;
3329;SDS011;1677;49.576;10.990;2022-07-04T05:54:07;2.80;;;2.60;;
3329;SDS011;1677;49.576;10.990;2022-07-04T05:56:33;6.23;;;2.70;;
3329;SDS011;1677;49.576;10.990;2022-07-04T05:58:59;2.80;;;2.60;;
3329;SDS011;1677;49.576;10.990;2022-07-04T06:01:24;2.67;;;2.47;;
3329;SDS011;1677;49.576;10.990;2022-07-04T06:03:50;2.97;;;2.57;;
3329;SDS011;1677;49.576;10.990;2022-07-04T06:06:15;16.03;;;3.30;;
3329;SDS011;1677;49.576;10.990;2022-07-04T06:08:41;3.67;;;2.97;;
3329;SDS011;1677;49.576;10.990;2022-07-04T06:11:07;2.40;;;2.20;;
3329;SDS011;1677;49.576;10.990;2022-07-04T06:13:33;4.27;;;2.30;;
3329;SDS011;1677;49.576;10.990;2022-07-04T06:15:58;2.83;;;2.50;;
3329;SDS011;1677;49.576;10.990;2022-07-04T06:18:24;2.93;;;2.73;;
3329;SDS011;1677;49.576;10.990;2022-07-04T06:20:50;7.67;;;2.40;;
3329;SDS011;1677;49.576;10.990;2022-07-04T06:23:16;4.10;;;2.90;;
3329;SDS011;1677;49.576;10.990;2022-07-04T06:25:41;3.20;;;2.90;;
3329;SDS011;1677;49.576;10.990;2022-07-04T06:28:07;2.60;;;2.40;;
3329;SDS011;1677;49.576;10.990;2022-07-04T06:30:32;3.00;;;2.70;;
3329;SDS011;1677;49.576;10.990;2022-07-04T06:32:58;2.77;;;2.57;;
3329;SDS011;1677;49.576;10.990;2022-07-04T06:35:25;3.90;;;3.17;;
3329;SDS011;1677;49.576;10.990;2022-07-04T06:38:15;3.03;;;2.60;;
3329;SDS011;1677;49.576;10.990;2022-07-04T06:40:42;3.13;;;2.93;;
3329;SDS011;1677;49.576;10.990;2022-07-04T06:43:09;2.80;;;2.60;;
3329;SDS011;1677;49.576;10.990;2022-07-04T06:45:34;3.17;;;2.60;;
3329;SDS011;1677;49.576;10.990;2022-07-04T06:48:01;2.80;;;2.23;;
3329;SDS011;1677;49.576;10.990;2022-07-04T06:50:28;2.40;;;2.20;;
3329;SDS011;1677;49.576;10.990;2022-07-04T06:52:57;3.00;;;2.80;;
3329;SDS011;1677;49.576;10.990;2022-07-04T06:55:27;2.90;;;2.70;;
3329;SDS011;1677;49.576;10.990;2022-07-04T06:57:53;2.70;;;2.50;;
3329;SDS011;1677;49.576;10.990;2022-07-04T07:00:18;3.27;;;2.90;;
3329;SDS011;1677;49.576;10.990;2022-07-04T07:02:44;2.90;;;2.40;;
3329;SDS011;1677;49.576;10.990;2022-07-04T07:05:09;3.40;;;2.47;;
3329;SDS011;1677;49.576;10.990;2022-07-04T07:07:35;3.17;;;2.77;;
3329;SDS011;1677;49.576;10.990;2022-07-04T07:10:01;3.40;;;2.90;;
3329;SDS011;1677;49.576;10.990;2022-07-04T07:12:28;3.20;;;3.00;;
3329;SDS011;1677;49.576;10.990;2022-07-04T07:14:54;4.03;;;3.13;;
3329;SDS011;1677;49.576;10.990;2022-07-04T07:17:19;3.20;;;3.00;;
3329;SDS011;1677;49.576;10.990;2022-07-04T07:19:45;3.07;;;2.87;;
3329;SDS011;1677;49.576;10.990;2022-07-04T07:22:12;4.07;;;3.10;;
3329;SDS011;1677;49.576;10.990;2022-07-04T07:24:38;3.35;;;3.05;;
3329;SDS011;1677;49.576;10.990;2022-07-04T07:27:04;4.07;;;2.90;;
3329;SDS011;1677;49.576;10.990;2022-07-04T07:29:30;4.03;;;3.60;;
3329;SDS011;1677;49.576;10.990;2022-07-04T07:31:55;3.50;;;2.90;;
3329;SDS011;1677;49.576;10.990;2022-07-04T07:34:21;3.30;;;3.00;;
3329;SDS011;1677;49.576;10.990;2022-07-04T07:36:47;4.60;;;3.13;;
3329;SDS011;1677;49.576;10.990;2022-07-04T07:39:12;5.10;;;3.00;;
3329;SDS011;1677;49.576;10.990;2022-07-04T07:41:38;8.93;;;3.30;;
3329;SDS011;1677;49.576;10.990;2022-07-04T07:44:03;3.50;;;3.20;;
3329;SDS011;1677;49.576;10.990;2022-07-04T07:46:29;3.90;;;3.23;;
3329;SDS011;1677;49.576;10.990;2022-07-04T07:48:55;3.53;;;3.23;;
3329;SDS011;1677;49.576;10.990;2022-07-04T07:51:20;3.67;;;3.37;;
3329;SDS011;1677;49.576;10.990;2022-07-04T07:53:46;3.17;;;2.97;;
3329;SDS011;1677;49.576;10.990;2022-07-04T07:56:12;3.90;;;3.50;;
3329;SDS011;1677;49.576;10.990;2022-07-04T07:58:38;4.10;;;3.20;;
3329;SDS011;1677;49.576;10.990;2022-07-04T08:01:03;3.87;;;3.13;;
3329;SDS011;1677;49.576;10.990;2022-07-04T08:03:29;5.17;;;3.80;;
3329;SDS011;1677;49.576;10.990;2022-07-04T08:06:13;6.10;;;3.10;;
3329;SDS011;1677;49.576;10.990;2022-07-04T08:08:40;7.37;;;3.60;;
3329;SDS011;1677;49.576;10.990;2022-07-04T08:11:07;4.20;;;3.80;;
3329;SDS011;1677;49.576;10.990;2022-07-04T08:13:34;3.80;;;3.50;;
3329;SDS011;1677;49.576;10.990;2022-07-04T08:15:59;3.43;;;3.13;;
3329;SDS011;1677;49.576;10.990;2022-07-04T08:18:25;3.43;;;3.13;;
3329;SDS011;1677;49.576;10.990;2022-07-04T08:20:51;3.87;;;3.43;;
3329;SDS011;1677;49.576;10.990;2022-07-04T08:23:16;3.70;;;3.40;;
3329;SDS011;1677;49.576;10.990;2022-07-04T08:25:42;3.43;;;3.13;;
3329;SDS011;1677;49.576;10.990;2022-07-04T08:28:08;3.73;;;3.43;;
3329;SDS011;1677;49.576;10.990;2022-07-04T08:30:34;2.93;;;2.73;;
3329;SDS011;1677;49.576;10.990;2022-07-04T08:32:59;3.37;;;3.07;;
3329;SDS011;1677;49.576;10.990;2022-07-04T08:35:25;3.83;;;3.43;;
3329;SDS011;1677;49.576;10.990;2022-07-04T08:37:51;7.40;;;3.53;;
3329;SDS011;1677;49.576;10.990;2022-07-04T08:40:21;4.63;;;3.60;;
3329;SDS011;1677;49.576;10.990;2022-07-04T08:42:48;3.50;;;3.30;;
3329;SDS011;1677;49.576;10.990;2022-07-04T08:45:14;3.30;;;3.00;;
3329;SDS011;1677;49.576;10.990;2022-07-04T08:47:42;3.37;;;3.10;;
3329;SDS011;1677;49.576;10.990;2022-07-04T08:50:12;3.33;;;3.13;;
3329;SDS011;1677;49.576;10.990;2022-07-04T08:52:47;2.97;;;2.77;;
3329;SDS011;1677;49.576;10.990;2022-07-04T08:55:20;4.50;;;3.07;;
3329;SDS011;1677;49.576;10.990;2022-07-04T08:58:06;3.80;;;2.90;;
3329;SDS011;1677;49.576;10.990;2022-07-04T09:00:51;3.67;;;3.37;;
3329;SDS011;1677;49.576;10.990;2022-07-04T09:03:18;3.73;;;3.40;;
3329;SDS011;1677;49.576;10.990;2022-07-04T09:05:45;4.20;;;3.17;;
3329;SDS011;1677;49.576;10.990;2022-07-04T09:08:11;4.33;;;3.50;;
3329;SDS011;1677;49.576;10.990;2022-07-04T09:10:37;4.63;;;3.37;;
3329;SDS011;1677;49.576;10.990;2022-07-04T09:13:07;3.47;;;3.17;;
3329;SDS011;1677;49.576;10.990;2022-07-04T09:15:35;4.07;;;3.40;;
3329;SDS011;1677;49.576;10.990;2022-07-04T09:18:01;5.10;;;4.00;;
3329;SDS011;1677;49.576;10.990;2022-07-04T09:20:29;4.93;;;4.10;;
3329;SDS011;1677;49.576;10.990;2022-07-04T09:22:56;3.80;;;3.50;;
3329;SDS011;1677;49.576;10.990;2022-07-04T09:25:22;5.73;;;3.60;;
3329;SDS011;1677;49.576;10.990;2022-07-04T09:27:52;3.90;;;3.50;;
3329;SDS011;1677;49.576;10.990;2022-07-04T09:30:21;3.30;;;3.03;;
3329;SDS011;1677;49.576;10.990;2022-07-04T09:32:49;4.37;;;3.30;;
3329;SDS011;1677;49.576;10.990;2022-07-04T09:35:25;3.93;;;3.50;;
3329;SDS011;1677;49.576;10.990;2022-07-04T09:37:52;3.37;;;3.07;;
3329;SDS011;1677;49.576;10.990;2022-07-04T09:40:32;5.27;;;3.07;;
3329;SDS011;1677;49.576;10.990;2022-07-04T09:43:22;3.40;;;3.20;;
3329;SDS011;1677;49.576;10.990;2022-07-04T09:45:56;4.03;;;2.70;;
3329;SDS011;1677;49.576;10.990;2022-07-04T09:48:23;2.97;;;2.77;;
3329;SDS011;1677;49.576;10.990;2022-07-04T09:50:49;6.23;;;3.50;;
3329;SDS011;1677;49.576;10.990;2022-07-04T09:53:15;5.70;;;3.13;;
3329;SDS011;1677;49.576;10.990;2022-07-04T09:55:42;8.00;;;3.20;;
3329;SDS011;1677;49.576;10.990;2022-07-04T09:58:14;4.90;;;3.13;;
3329;SDS011;1677;49.576;10.990;2022-07-04T10:00:44;3.50;;;3.30;;
3329;SDS011;1677;49.576;10.990;2022-07-04T10:08:29;3.03;;;2.83;;
3329;SDS011;1677;49.576;10.990;2022-07-04T10:10:58;3.60;;;3.30;;
3329;SDS011;1677;49.576;10.990;2022-07-04T10:13:25;3.03;;;2.77;;
3329;SDS011;1677;49.576;10.990;2022-07-04T10:15:51;3.20;;;3.00;;
3329;SDS011;1677;49.576;10.990;2022-07-04T10:18:17;3.20;;;3.00;;
3329;SDS011;1677;49.576;10.990;2022-07-04T10:20:44;3.60;;;3.27;;
3329;SDS011;1677;49.576;10.990;2022-07-04T10:23:11;3.45;;;3.20;;
3329;SDS011;1677;49.576;10.990;2022-07-04T10:25:36;3.37;;;3.07;;
3329;SDS011;1677;49.576;10.990;2022-07-04T10:28:02;3.10;;;2.87;;
3329;SDS011;1677;49.576;10.990;2022-07-04T10:30:30;4.70;;;3.40;;
3329;SDS011;1677;49.576;10.990;2022-07-04T10:32:58;5.40;;;2.93;;
3329;SDS011;1677;49.576;10.990;2022-07-04T10:38:19;3.33;;;3.03;;
3329;SDS011;1677;49.576;10.990;2022-07-04T10:51:32;3.10;;;2.90;;
3329;SDS011;1677;49.576;10.990;2022-07-04T10:54:02;4.33;;;3.33;;
3329;SDS011;1677;49.576;10.990;2022-07-04T10:59:21;3.70;;;3.40;;
3329;SDS011;1677;49.576;10.990;2022-07-04T11:02:36;3.53;;;3.30;;
3329;SDS011;1677;49.576;10.990;2022-07-04T11:04:46;3.60;;;3.30;;
3329;SDS011;1677;49.576;10.990;2022-07-04T11:07:15;7.00;;;3.07;;
3329;SDS011;1677;49.576;10.990;2022-07-04T11:09:43;3.27;;;2.97;;
3329;SDS011;1677;49.576;10.990;2022-07-04T11:12:09;10.40;;;4.03;;
3329;SDS011;1677;49.576;10.990;2022-07-04T11:14:39;3.00;;;2.80;;
3329;SDS011;1677;49.576;10.990;2022-07-04T11:17:07;3.10;;;2.90;;
3329;SDS011;1677;49.576;10.990;2022-07-04T11:19:37;2.90;;;2.70;;
3329;SDS011;1677;49.576;10.990;2022-07-04T11:22:04;3.10;;;2.80;;
3329;SDS011;1677;49.576;10.990;2022-07-04T11:24:31;2.93;;;2.73;;
3329;SDS011;1677;49.576;10.990;2022-07-04T11:26:57;2.50;;;2.30;;
3329;SDS011;1677;49.576;10.990;2022-07-04T11:29:23;5.53;;;2.37;;
3329;SDS011;1677;49.576;10.990;2022-07-04T11:31:49;3.27;;;2.37;;
3329;SDS011;1677;49.576;10.990;2022-07-04T11:34:16;3.03;;;2.60;;
3329;SDS011;1677;49.576;10.990;2022-07-04T11:36:43;2.50;;;2.30;;
3329;SDS011;1677;49.576;10.990;2022-07-04T11:39:11;2.37;;;2.20;;
3329;SDS011;1677;49.576;10.990;2022-07-04T11:41:42;4.70;;;2.80;;
3329;SDS011;1677;49.576;10.990;2022-07-04T11:44:31;3.40;;;2.10;;
3329;SDS011;1677;49.576;10.990;2022-07-04T11:47:17;2.70;;;2.47;;
3329;SDS011;1677;49.576;10.990;2022-07-04T11:49:52;2.40;;;2.20;;
3329;SDS011;1677;49.576;10.990;2022-07-04T11:52:23;4.83;;;2.00;;
3329;SDS011;1677;49.576;10.990;2022-07-04T11:54:49;2.60;;;1.90;;
3329;SDS011;1677;49.576;10.990;2022-07-04T12:00:09;2.40;;;2.13;;
3329;SDS011;1677;49.576;10.990;2022-07-04T12:02:35;2.10;;;1.90;;
3329;SDS011;1677;49.576;10.990;2022-07-04T12:05:01;4.57;;;2.17;;
3329;SDS011;1677;49.576;10.990;2022-07-04T12:07:29;1.77;;;1.50;;
3329;SDS011;1677;49.576;10.990;2022-07-04T12:13:01;2.10;;;1.90;;
3329;SDS011;1677;49.576;10.990;2022-07-04T12:15:39;4.30;;;2.33;;
3329;SDS011;1677;49.576;10.990;2022-07-04T12:18:19;4.77;;;2.30;;
3329;SDS011;1677;49.576;10.990;2022-07-04T12:20:50;2.97;;;2.17;;
3329;SDS011;1677;49.576;10.990;2022-07-04T12:23:18;4.03;;;2.03;;
3329;SDS011;1677;49.576;10.990;2022-07-04T12:25:46;2.33;;;2.10;;
3329;SDS011;1677;49.576;10.990;2022-07-04T12:28:13;3.23;;;1.93;;
3329;SDS011;1677;49.576;10.990;2022-07-04T12:30:48;2.37;;;2.10;;
3329;SDS011;1677;49.576;10.990;2022-07-04T12:33:17;2.30;;;1.80;;
3329;SDS011;1677;49.576;10.990;2022-07-04T12:35:44;2.57;;;1.77;;
3329;SDS011;1677;49.576;10.990;2022-07-04T12:38:14;3.53;;;2.03;;
3329;SDS011;1677;49.576;10.990;2022-07-04T12:40:52;6.33;;;2.23;;
3329;SDS011;1677;49.576;10.990;2022-07-04T12:46:10;1.63;;;1.50;;
3329;SDS011;1677;49.576;10.990;2022-07-04T12:48:40;2.03;;;1.77;;
3329;SDS011;1677;49.576;10.990;2022-07-04T12:51:13;2.27;;;1.73;;
3329;SDS011;1677;49.576;10.990;2022-07-04T12:53:49;2.27;;;1.80;;
3329;SDS011;1677;49.576;10.990;2022-07-04T12:58:57;3.63;;;1.83;;
3329;SDS011;1677;49.576;10.990;2022-07-04T13:01:24;2.77;;;1.77;;
3329;SDS011;1677;49.576;10.990;2022-07-04T13:03:50;2.57;;;1.80;;
3329;SDS011;1677;49.576;10.990;2022-07-04T13:06:16;3.70;;;2.50;;
3329;SDS011;1677;49.576;10.990;2022-07-04T13:08:42;2.77;;;1.60;;
3329;SDS011;1677;49.576;10.990;2022-07-04T13:11:07;1.47;;;1.30;;
3329;SDS011;1677;49.576;10.990;2022-07-04T13:13:52;3.63;;;1.47;;
3329;SDS011;1677;49.576;10.990;2022-07-04T13:16:17;1.70;;;1.60;;
3329;SDS011;1677;49.576;10.990;2022-07-04T13:18:43;2.13;;;1.83;;
3329;SDS011;1677;49.576;10.990;2022-07-04T13:21:08;1.80;;;1.70;;
3329;SDS011;1677;49.576;10.990;2022-07-04T13:23:34;4.60;;;1.60;;
3329;SDS011;1677;49.576;10.990;2022-07-04T13:26:00;1.87;;;1.50;;
3329;SDS011;1677;49.576;10.990;2022-07-04T13:28:26;3.23;;;2.17;;
3329;SDS011;1677;49.576;10.990;2022-07-04T13:30:51;2.23;;;1.70;;
3329;SDS011;1677;49.576;10.990;2022-07-04T13:33:17;2.13;;;1.63;;
3329;SDS011;1677;49.576;10.990;2022-07-04T13:35:43;2.23;;;1.37;;
3329;SDS011;1677;49.576;10.990;2022-07-04T13:38:08;2.13;;;1.60;;
3329;SDS011;1677;49.576;10.990;2022-07-04T13:40:34;1.90;;;1.70;;
3329;SDS011;1677;49.576;10.990;2022-07-04T13:43:00;3.70;;;1.70;;
3329;SDS011;1677;49.576;10.990;2022-07-04T13:45:26;1.90;;;1.60;;
3329;SDS011;1677;49.576;10.990;2022-07-04T13:47:52;1.53;;;1.43;;
3329;SDS011;1677;49.576;10.990;2022-07-04T13:50:19;2.00;;;1.50;;
3329;SDS011;1677;49.576;10.990;2022-07-04T13:52:45;1.93;;;1.37;;
3329;SDS011;1677;49.576;10.990;2022-07-04T13:55:10;2.13;;;1.60;;
3329;SDS011;1677;49.576;10.990;2022-07-04T13:57:36;1.80;;;1.70;;
3329;SDS011;1677;49.576;10.990;2022-07-04T14:00:06;1.93;;;1.40;;
3329;SDS011;1677;49.576;10.990;2022-07-04T14:02:32;2.33;;;1.20;;
3329;SDS011;1677;49.576;10.990;2022-07-04T14:04:59;1.60;;;1.20;;
3329;SDS011;1677;49.576;10.990;2022-07-04T14:07:25;4.73;;;1.80;;
3329;SDS011;1677;49.576;10.990;2022-07-04T14:09:50;1.50;;;1.40;;
3329;SDS011;1677;49.576;10.990;2022-07-04T14:12:16;1.50;;;1.40;;
3329;SDS011;1677;49.576;10.990;2022-07-04T14:14:42;1.57;;;1.47;;
3329;SDS011;1677;49.576;10.990;2022-07-04T14:17:08;1.87;;;1.37;;
3329;SDS011;1677;49.576;10.990;2022-07-04T14:19:34;1.87;;;1.77;;
3329;SDS011;1677;49.576;10.990;2022-07-04T14:21:59;1.80;;;1.70;;
3329;SDS011;1677;49.576;10.990;2022-07-04T14:24:25;1.97;;;1.30;;
3329;SDS011;1677;49.576;10.990;2022-07-04T14:26:51;1.40;;;1.30;;
3329;SDS011;1677;49.576;10.990;2022-07-04T14:29:17;1.40;;;1.30;;
3329;SDS011;1677;49.576;10.990;2022-07-04T14:31:43;2.33;;;1.83;;
3329;SDS011;1677;49.576;10.990;2022-07-04T14:34:09;3.20;;;1.30;;
3329;SDS011;1677;49.576;10.990;2022-07-04T14:36:36;2.30;;;1.47;;
3329;SDS011;1677;49.576;10.990;2022-07-04T14:39:03;2.20;;;1.50;;
3329;SDS011;1677;49.576;10.990;2022-07-04T14:41:28;3.20;;;1.50;;
3329;SDS011;1677;49.576;10.990;2022-07-04T14:43:54;1.77;;;1.27;;
3329;SDS011;1677;49.576;10.990;2022-07-04T14:46:20;1.83;;;1.30;;
3329;SDS011;1677;49.576;10.990;2022-07-04T14:48:45;3.00;;;1.70;;
3329;SDS011;1677;49.576;10.990;2022-07-04T14:51:11;2.67;;;1.40;;
3329;SDS011;1677;49.576;10.990;2022-07-04T14:53:36;3.83;;;1.20;;
3329;SDS011;1677;49.576;10.990;2022-07-04T14:56:02;1.87;;;1.40;;
3329;SDS011;1677;49.576;10.990;2022-07-04T14:58:28;1.70;;;1.60;;
3329;SDS011;1677;49.576;10.990;2022-07-04T15:00:55;2.50;;;1.50;;
3329;SDS011;1677;49.576;10.990;2022-07-04T15:03:21;1.87;;;1.77;;
3329;SDS011;1677;49.576;10.990;2022-07-04T15:05:46;2.80;;;1.50;;
3329;SDS011;1677;49.576;10.990;2022-07-04T15:08:12;3.77;;;1.70;;
3329;SDS011;1677;49.576;10.990;2022-07-04T15:10:38;2.30;;;1.50;;
3329;SDS011;1677;49.576;10.990;2022-07-04T15:13:04;1.40;;;1.30;;
3329;SDS011;1677;49.576;10.990;2022-07-04T15:15:30;1.87;;;1.40;;
3329;SDS011;1677;49.576;10.990;2022-07-04T15:17:55;5.67;;;1.57;;
3329;SDS011;1677;49.576;10.990;2022-07-04T15:20:21;2.73;;;1.70;;
3329;SDS011;1677;49.576;10.990;2022-07-04T15:23:05;3.87;;;2.10;;
3329;SDS011;1677;49.576;10.990;2022-07-04T15:25:49;1.60;;;1.50;;
3329;SDS011;1677;49.576;10.990;2022-07-04T15:28:15;1.50;;;1.30;;
3329;SDS011;1677;49.576;10.990;2022-07-04T15:30:41;1.40;;;1.30;;
3329;SDS011;1677;49.576;10.990;2022-07-04T15:33:06;2.10;;;1.60;;